Time;durP1;ratioP1;P1;durP2;ratioP2;P2;SDS_P1;SDS_P2;PMS_P1;PMS_P2;Temp;Humidity;BMP_temperature;BMP_pressure;BME280_temperature;BME280_humidity;BME280_pressure;Samples;Min_cycle;Max_cycle;Signal;HPM_P1;HPM_P2
2022/04/05 00:00:52;;;;;;;0.00;0.00;;;;;;;13.18;66.09;100661.63;7358306;19;20014;-58
2022/04/05 00:03:17;;;;;;;0.00;0.00;;;;;;;13.20;66.52;100669.44;7362647;19;20766;-58
2022/04/05 00:05:42;;;;;;;0.00;0.00;;;;;;;13.09;66.87;100645.34;7365504;19;20014;-59
2022/04/05 00:08:08;;;;;;;0.00;0.00;;;;;;;13.05;66.64;100641.97;7363859;19;20018;-57
2022/04/05 00:10:34;;;;;;;0.00;0.00;;;;;;;13.14;66.49;100659.16;7360787;19;20459;-57
2022/04/05 00:13:01;;;;;;;0.00;0.00;;;;;;;13.10;66.87;100658.41;7359327;19;20847;-58
2022/04/05 00:15:26;;;;;;;0.00;0.00;;;;;;;12.97;66.40;100628.25;7364174;19;20573;-57
2022/04/05 00:17:52;;;;;;;0.00;0.00;;;;;;;12.76;66.23;100594.91;7363791;19;20026;-57
2022/04/05 00:20:17;;;;;;;0.00;0.00;;;;;;;13.06;66.19;100646.31;7360362;19;20041;-58
2022/04/05 00:22:43;;;;;;;0.08;0.08;;;;;;;13.03;66.55;100651.66;7360015;19;20587;-57
2022/04/05 00:25:08;;;;;;;0.00;0.00;;;;;;;12.99;66.43;100643.03;7358839;19;20019;-57
2022/04/05 00:27:34;;;;;;;0.00;0.00;;;;;;;12.99;65.64;100644.81;7364949;19;20033;-57
2022/04/05 00:29:59;;;;;;;0.00;0.00;;;;;;;12.94;65.38;100641.50;7363211;19;20389;-58
2022/04/05 00:32:26;;;;;;;0.00;0.00;;;;;;;12.97;66.14;100636.13;7362575;19;20043;-58
2022/04/05 00:34:51;;;;;;;0.00;0.00;;;;;;;12.95;65.99;100640.56;7363265;19;20014;-58
2022/04/05 00:37:17;;;;;;;0.10;0.10;;;;;;;12.91;65.67;100636.34;7358252;19;20014;-58
2022/04/05 00:39:42;;;;;;;0.00;0.00;;;;;;;12.81;66.02;100625.31;7358567;19;20014;-57
2022/04/05 00:42:10;;;;;;;0.00;0.00;;;;;;;12.94;65.91;100633.63;7364215;19;20018;-58
2022/04/05 00:44:36;;;;;;;0.00;0.00;;;;;;;12.88;65.57;100626.81;7353622;19;20007;-58
2022/04/05 00:47:15;;;;;;;0.00;0.00;;;;;;;12.94;65.40;100636.25;7360553;19;20046;-59
2022/04/05 00:49:43;;;;;;;0.00;0.00;;;;;;;12.92;65.50;100632.81;7355677;19;20086;-57
2022/04/05 00:52:09;;;;;;;0.00;0.00;;;;;;;12.85;65.29;100620.81;7362330;19;20014;-57
2022/04/05 00:54:37;;;;;;;0.00;0.00;;;;;;;12.92;64.99;100625.78;7363483;19;20024;-58
2022/04/05 00:57:06;;;;;;;0.00;0.00;;;;;;;12.90;64.61;100619.75;7360225;19;20015;-58
2022/04/05 00:59:33;;;;;;;0.08;0.08;;;;;;;12.88;65.25;100623.34;7362908;19;20912;-57
2022/04/05 01:02:01;;;;;;;0.00;0.00;;;;;;;12.75;64.95;100595.84;7345181;19;20013;-57
2022/04/05 01:04:28;;;;;;;;;;;;;;;12.85;63.81;100615.56;7358476;19;20011;-58
2022/04/05 01:06:54;;;;;;;0.00;0.00;;;;;;;12.72;65.03;100605.53;7348789;19;19927;-58
2022/04/05 01:09:20;;;;;;;0.00;0.00;;;;;;;12.60;64.92;100590.19;7364313;19;20010;-58
2022/04/05 01:11:45;;;;;;;0.00;0.00;;;;;;;12.69;64.92;100610.84;7355471;19;21127;-58
2022/04/05 01:14:11;;;;;;;0.00;0.00;;;;;;;12.67;64.73;100609.16;7361335;19;20536;-57
2022/04/05 01:16:38;;;;;;;0.00;0.00;;;;;;;12.63;65.12;100600.56;7364502;19;20022;-58
2022/04/05 01:19:06;;;;;;;0.00;0.00;;;;;;;12.59;64.97;100591.09;7353495;19;20054;-58
2022/04/05 01:21:31;;;;;;;0.00;0.00;;;;;;;12.54;65.15;100586.91;7359453;19;20006;-58
2022/04/05 01:24:10;;;;;;;0.00;0.00;;;;;;;12.56;64.68;100587.72;7362078;19;20006;-58
2022/04/05 01:26:47;;;;;;;0.00;0.00;;;;;;;12.52;65.05;100584.34;7364034;19;20007;-57
2022/04/05 01:29:14;;;;;;;0.00;0.00;;;;;;;12.49;64.90;100579.22;7362538;19;20053;-57
2022/04/05 01:31:44;;;;;;;0.00;0.00;;;;;;;12.46;64.97;100571.44;7352545;19;20014;-58
2022/04/05 01:34:10;;;;;;;0.00;0.00;;;;;;;12.42;65.10;100577.72;7353679;19;20047;-57
2022/04/05 01:36:49;;;;;;;0.00;0.00;;;;;;;12.41;64.86;100566.34;7362273;19;20109;-58
2022/04/05 01:39:16;;;;;;;0.00;0.00;;;;;;;12.39;64.67;100560.31;7360672;19;20018;-57
2022/04/05 01:41:41;;;;;;;0.00;0.00;;;;;;;12.36;64.86;100565.63;7346093;19;20869;-57
2022/04/05 01:44:09;;;;;;;0.00;0.00;;;;;;;12.37;64.79;100569.16;7362795;19;20025;-59
2022/04/05 01:46:35;;;;;;;0.00;0.00;;;;;;;12.35;64.69;100570.94;7355958;19;20014;-57
2022/04/05 01:49:00;;;;;;;0.00;0.00;;;;;;;12.32;65.06;100573.66;7363427;19;20021;-57
2022/04/05 01:51:26;;;;;;;0.00;0.00;;;;;;;12.32;64.54;100555.34;7350436;19;20711;-57
2022/04/05 01:53:53;;;;;;;0.00;0.00;;;;;;;12.19;64.50;100555.72;7355788;19;20013;-58
2022/04/05 01:56:18;;;;;;;0.00;0.00;;;;;;;12.27;64.61;100560.72;7359771;19;20014;-58
2022/04/05 01:58:44;;;;;;;0.00;0.00;;;;;;;12.27;64.30;100563.34;7350107;19;20014;-57
2022/04/05 02:01:09;;;;;;;0.00;0.00;;;;;;;12.29;64.07;100579.00;7357222;19;20014;-58
2022/04/05 02:03:35;;;;;;;0.00;0.00;;;;;;;12.17;64.38;100536.59;7353577;19;20010;-58
2022/04/05 02:06:00;;;;;;;0.00;0.00;;;;;;;12.31;63.97;100566.69;7351777;19;20008;-57
2022/04/05 02:08:26;;;;;;;0.00;0.00;;;;;;;12.30;63.97;100565.00;7342944;19;20010;-58
2022/04/05 02:10:51;;;;;;;0.00;0.00;;;;;;;12.28;64.23;100567.66;7358645;19;20042;-57
2022/04/05 02:13:16;;;;;;;0.00;0.00;;;;;;;12.34;64.24;100577.09;7347409;19;20015;-57
2022/04/05 02:15:42;;;;;;;0.00;0.00;;;;;;;12.22;64.15;100548.69;7354194;19;20014;-57
2022/04/05 02:18:07;;;;;;;0.00;0.00;;;;;;;12.37;63.72;100574.38;7356762;19;20014;-58
2022/04/05 02:20:33;;;;;;;0.00;0.00;;;;;;;12.37;63.55;100571.75;7348243;19;20036;-58
2022/04/05 02:22:59;;;;;;;0.03;0.03;;;;;;;12.38;63.68;100566.47;7344528;19;20018;-57
2022/04/05 02:25:26;;;;;;;0.00;0.00;;;;;;;12.32;63.44;100545.72;7355572;19;20042;-58
2022/04/05 02:27:51;;;;;;;0.00;0.00;;;;;;;12.40;63.26;100548.06;7352791;19;20724;-57
2022/04/05 02:30:17;;;;;;;0.00;0.00;;;;;;;12.28;63.10;100524.91;7350841;19;20086;-58
2022/04/05 02:32:42;;;;;;;0.00;0.00;;;;;;;12.41;63.40;100553.25;7355530;19;20546;-58
2022/04/05 02:35:08;;;;;;;0.00;0.00;;;;;;;12.42;63.00;100551.53;7346115;19;20094;-57
2022/04/05 02:37:34;;;;;;;0.00;0.00;;;;;;;12.43;62.87;100550.59;7356421;19;20031;-58
2022/04/05 02:39:59;;;;;;;0.00;0.00;;;;;;;11.90;62.75;100456.31;7354537;19;20006;-57
2022/04/05 02:42:25;;;;;;;0.00;0.00;;;;;;;12.43;62.81;100551.47;7360352;19;20014;-56
2022/04/05 02:44:50;;;;;;;0.00;0.00;;;;;;;12.32;62.67;100529.16;7356109;19;20433;-58
2022/04/05 02:47:15;;;;;;;0.00;0.00;;;;;;;12.44;62.57;100547.06;7359560;19;20010;-58
2022/04/05 02:49:41;;;;;;;0.00;0.00;;;;;;;12.45;62.79;100540.94;7360386;19;20010;-58
2022/04/05 02:52:07;;;;;;;0.00;0.00;;;;;;;12.35;62.87;100531.66;7360553;19;20021;-58
2022/04/05 02:54:32;;;;;;;0.00;0.00;;;;;;;12.45;62.86;100533.06;7354622;19;20382;-58
2022/04/05 02:56:58;;;;;;;0.00;0.00;;;;;;;12.43;62.83;100532.28;7361865;19;20038;-58
2022/04/05 02:59:23;;;;;;;0.00;0.00;;;;;;;12.44;63.13;100536.59;7357584;19;20741;-58
2022/04/05 03:01:49;;;;;;;0.00;0.00;;;;;;;12.44;62.73;100540.06;7354104;19;20093;-57
2022/04/05 03:04:15;;;;;;;0.00;0.00;;;;;;;12.39;63.13;100528.03;7363326;19;20014;-58
2022/04/05 03:06:40;;;;;;;0.00;0.00;;;;;;;12.37;63.13;100535.09;7350645;19;20653;-57
2022/04/05 03:09:06;;;;;;;0.00;0.00;;;;;;;12.28;63.30;100517.06;7363119;19;20010;-59
2022/04/05 03:11:31;;;;;;;0.00;0.00;;;;;;;12.33;63.76;100523.00;7363655;19;20374;-57
2022/04/05 03:13:57;;;;;;;0.10;0.10;;;;;;;12.23;63.64;100511.13;7341702;19;20006;-57
2022/04/05 03:16:24;;;;;;;0.00;0.00;;;;;;;12.29;64.06;100521.38;7364744;19;20018;-58
2022/04/05 03:18:50;;;;;;;0.00;0.00;;;;;;;12.31;63.51;100525.66;7350873;19;20015;-57
2022/04/05 03:21:15;;;;;;;0.00;0.00;;;;;;;12.16;64.01;100505.22;7353979;19;20017;-57
2022/04/05 03:23:41;;;;;;;0.00;0.00;;;;;;;12.20;63.67;100506.81;7365299;19;20727;-58
2022/04/05 03:26:06;;;;;;;0.00;0.00;;;;;;;12.24;63.94;100528.53;7350851;19;20018;-57
2022/04/05 03:28:32;;;;;;;0.03;0.03;;;;;;;12.20;64.07;100523.38;7366608;19;20022;-57
2022/04/05 03:30:57;;;;;;;0.00;0.00;;;;;;;12.19;63.62;100521.69;7354922;19;20014;-57
2022/04/05 03:33:22;;;;;;;0.00;0.00;;;;;;;12.18;63.31;100527.81;7356564;19;20018;-57
2022/04/05 03:35:48;;;;;;;0.00;0.00;;;;;;;12.16;63.42;100527.00;7365116;19;20018;-59
2022/04/05 03:38:13;;;;;;;0.00;0.00;;;;;;;12.12;63.67;100519.31;7366565;19;20014;-58
2022/04/05 03:40:39;;;;;;;0.00;0.00;;;;;;;11.95;63.52;100502.38;7365908;19;20014;-58
2022/04/05 03:43:07;;;;;;;0.10;0.10;;;;;;;12.06;64.12;100509.03;7364051;19;20017;-57
2022/04/05 03:45:33;;;;;;;0.00;0.00;;;;;;;12.01;64.04;100517.03;7364896;19;20019;-58
2022/04/05 03:47:58;;;;;;;0.00;0.00;;;;;;;12.00;63.52;100515.31;7358192;19;20530;-57
2022/04/05 03:50:23;;;;;;;0.00;0.00;;;;;;;11.87;64.03;100487.84;7365358;19;20335;-57
2022/04/05 03:52:49;;;;;;;0.00;0.00;;;;;;;11.92;63.56;100502.50;7364400;19;20006;-58
2022/04/05 03:55:14;;;;;;;0.00;0.00;;;;;;;11.89;63.85;100501.72;7362514;19;20034;-58
2022/04/05 03:57:40;;;;;;;0.00;0.00;;;;;;;11.85;63.89;100495.72;7365636;19;20018;-57
2022/04/05 04:00:07;;;;;;;0.00;0.00;;;;;;;11.82;63.54;100492.34;7362848;19;20014;-57
2022/04/05 04:02:35;;;;;;;0.00;0.00;;;;;;;11.80;63.88;100501.97;7359491;19;20035;-58
2022/04/05 04:05:00;;;;;;;0.00;0.00;;;;;;;11.67;64.07;100489.28;7362981;19;20461;-58
2022/04/05 04:07:26;;;;;;;0.00;0.00;;;;;;;11.71;64.02;100497.91;7359786;19;20006;-58
2022/04/05 04:09:51;;;;;;;0.00;0.00;;;;;;;11.66;63.87;100490.19;7362603;19;20011;-58
2022/04/05 04:12:17;;;;;;;0.00;0.00;;;;;;;11.58;63.81;100479.09;7363603;19;20031;-58
2022/04/05 04:14:42;;;;;;;0.00;0.00;;;;;;;11.59;63.70;100477.31;7358928;19;20014;-57
2022/04/05 04:17:08;;;;;;;0.00;0.00;;;;;;;11.53;63.93;100478.38;7363267;19;20017;-58
2022/04/05 04:19:34;;;;;;;0.00;0.00;;;;;;;11.46;64.06;100468.16;7364145;19;20017;-58
2022/04/05 04:21:59;;;;;;;0.00;0.00;;;;;;;11.46;64.33;100465.53;7350474;19;20011;-57
2022/04/05 04:24:25;;;;;;;0.00;0.00;;;;;;;11.44;64.34;100463.81;7360680;19;20014;-58
2022/04/05 04:26:50;;;;;;;0.10;0.10;;;;;;;11.43;64.35;100464.72;7345513;19;20014;-59
2022/04/05 04:29:15;;;;;;;0.00;0.00;;;;;;;11.41;64.54;100463.06;7362422;19;20896;-58
2022/04/05 04:31:41;;;;;;;0.00;0.00;;;;;;;11.40;64.60;100466.56;7353285;19;20014;-57
2022/04/05 04:34:06;;;;;;;0.00;0.00;;;;;;;11.39;64.28;100462.22;7363263;19;20014;-57
2022/04/05 04:36:32;;;;;;;0.00;0.00;;;;;;;11.30;64.36;100452.03;7363951;19;20086;-57
2022/04/05 04:38:58;;;;;;;0.10;0.10;;;;;;;11.37;64.74;100458.81;7357317;19;20094;-58
2022/04/05 04:41:24;;;;;;;0.00;0.00;;;;;;;11.28;64.69;100446.00;7363930;19;20014;-57
2022/04/05 04:43:50;;;;;;;0.00;0.00;;;;;;;11.34;64.69;100458.91;7358441;19;20019;-57
2022/04/05 04:46:15;;;;;;;0.00;0.00;;;;;;;11.29;64.89;100458.19;7363230;19;20006;-57
2022/04/05 04:48:41;;;;;;;0.00;0.00;;;;;;;11.32;64.88;100463.31;7355368;19;20098;-57
2022/04/05 04:51:08;;;;;;;0.00;0.00;;;;;;;11.30;64.93;100471.19;7360722;19;20093;-57
2022/04/05 04:53:33;;;;;;;0.00;0.00;;;;;;;11.31;64.91;100466.84;7359682;19;20030;-57
2022/04/05 04:55:59;;;;;;;0.00;0.00;;;;;;;11.25;65.00;100452.19;7355215;19;20018;-57
2022/04/05 04:58:24;;;;;;;0.00;0.00;;;;;;;11.28;64.95;100446.88;7363368;19;20010;-58
2022/04/05 05:00:50;;;;;;;0.00;0.00;;;;;;;11.33;64.99;100459.81;7352309;19;20009;-57
2022/04/05 05:03:18;;;;;;;0.00;0.00;;;;;;;11.32;65.10;100453.72;7353313;19;20029;-58
2022/04/05 05:05:44;;;;;;;0.00;0.00;;;;;;;11.29;65.20;100439.88;7362888;19;20034;-57
2022/04/05 05:08:09;;;;;;;0.00;0.00;;;;;;;11.36;65.00;100454.50;7360017;19;20366;-57
2022/04/05 05:10:35;;;;;;;0.00;0.00;;;;;;;11.34;65.05;100451.06;7363417;19;20007;-58
2022/04/05 05:13:00;;;;;;;0.03;0.03;;;;;;;11.35;64.81;100447.53;7342548;19;20615;-57
2022/04/05 05:15:26;;;;;;;0.00;0.00;;;;;;;11.36;64.76;100444.03;7363387;19;20026;-57
2022/04/05 05:17:53;;;;;;;0.00;0.00;;;;;;;11.32;64.59;100426.72;7353094;19;20010;-57
2022/04/05 05:20:18;;;;;;;0.00;0.00;;;;;;;11.38;64.72;100437.00;7360886;19;20362;-57
2022/04/05 05:22:44;;;;;;;0.00;0.00;;;;;;;11.40;64.21;100437.78;7343629;19;20002;-57
2022/04/05 05:25:10;;;;;;;0.00;0.00;;;;;;;11.40;64.47;100436.06;7361891;19;20483;-58
2022/04/05 05:27:37;;;;;;;0.10;0.10;;;;;;;11.42;64.62;100433.41;7357044;19;20060;-57
2022/04/05 05:30:05;;;;;;;0.10;0.10;;;;;;;11.42;64.49;100428.16;7361085;19;20069;-58
2022/04/05 05:32:31;;;;;;;0.00;0.00;;;;;;;11.41;64.13;100436.91;7360045;19;20014;-57
2022/04/05 05:34:56;;;;;;;0.00;0.00;;;;;;;11.42;64.04;100444.72;7362645;19;20010;-58
2022/04/05 05:37:21;;;;;;;0.00;0.00;;;;;;;11.45;64.06;100438.50;7357640;19;20011;-58
2022/04/05 05:39:47;;;;;;;0.00;0.00;;;;;;;11.48;63.75;100443.66;7358562;19;20040;-57
2022/04/05 05:42:13;;;;;;;0.00;0.00;;;;;;;11.50;63.33;100434.00;7354539;19;20577;-57
2022/04/05 05:44:38;;;;;;;0.00;0.00;;;;;;;11.52;63.50;100437.44;7361397;19;20657;-57
2022/04/05 05:47:05;;;;;;;0.00;0.00;;;;;;;11.52;63.05;100434.81;7355188;19;20014;-57
2022/04/05 05:49:31;;;;;;;0.00;0.00;;;;;;;11.57;62.83;100437.31;7359159;19;20010;-58
2022/04/05 05:51:56;;;;;;;0.00;0.00;;;;;;;11.58;63.01;100439.00;7360141;19;20768;-58
2022/04/05 05:54:22;;;;;;;0.00;0.00;;;;;;;11.62;63.06;100436.25;7353797;19;20003;-57
2022/04/05 05:56:47;;;;;;;0.00;0.00;;;;;;;11.64;62.86;100418.72;7361089;19;20006;-58
2022/04/05 05:59:13;;;;;;;0.00;0.00;;;;;;;11.66;62.26;100416.94;7361672;19;20014;-57
2022/04/05 06:01:38;;;;;;;0.00;0.00;;;;;;;11.67;62.12;100408.19;7352490;19;20086;-57
2022/04/05 06:04:04;;;;;;;0.00;0.00;;;;;;;11.67;61.97;100400.34;7360965;19;20006;-58
2022/04/05 06:06:29;;;;;;;0.00;0.00;;;;;;;11.64;62.11;100386.50;7349306;19;20018;-58
2022/04/05 06:08:55;;;;;;;0.00;0.00;;;;;;;11.66;61.74;100393.41;7361288;19;20366;-58
2022/04/05 06:11:22;;;;;;;0.00;0.00;;;;;;;11.67;61.54;100396.88;7359530;19;20031;-58
2022/04/05 06:13:48;;;;;;;0.00;0.00;;;;;;;11.66;61.87;100410.88;7360020;19;20006;-58
2022/04/05 06:16:14;;;;;;;0.00;0.00;;;;;;;11.64;61.99;100407.41;7356054;19;20056;-58
2022/04/05 06:18:42;;;;;;;0.00;0.00;;;;;;;11.66;61.56;100413.47;7358184;19;20044;-58
2022/04/05 06:21:08;;;;;;;0.00;0.00;;;;;;;11.62;61.59;100402.25;7359641;19;20013;-58
2022/04/05 06:23:33;;;;;;;0.00;0.00;;;;;;;11.63;61.53;100401.34;7358266;19;20029;-57
2022/04/05 06:25:59;;;;;;;0.00;0.00;;;;;;;11.63;61.65;100417.03;7358564;19;20007;-57
2022/04/05 06:28:24;;;;;;;0.00;0.00;;;;;;;11.63;61.74;100405.72;7352445;19;20704;-59
2022/04/05 06:30:50;;;;;;;0.00;0.00;;;;;;;11.63;61.57;100396.09;7359077;19;20013;-57
2022/04/05 06:33:22;;;;;;;0.00;0.00;;;;;;;11.62;61.90;100415.31;7361092;19;20017;-58
2022/04/05 06:35:53;;;;;;;0.00;0.00;;;;;;;11.63;61.50;100403.97;7354627;19;20719;-59
2022/04/05 06:38:19;;;;;;;0.00;0.00;;;;;;;11.62;61.74;100424.94;7359811;19;20018;-59
2022/04/05 06:40:44;;;;;;;0.00;0.00;;;;;;;11.60;62.01;100419.72;7343570;19;21291;-58
2022/04/05 06:43:11;;;;;;;0.00;0.00;;;;;;;11.59;61.82;100423.25;7355851;19;20012;-58
2022/04/05 06:45:37;;;;;;;0.00;0.00;;;;;;;11.59;61.75;100425.03;7355792;19;20113;-58
2022/04/05 06:48:03;;;;;;;0.00;0.00;;;;;;;11.58;62.27;100424.16;7352599;19;20529;-58
2022/04/05 06:50:29;;;;;;;0.00;0.00;;;;;;;11.56;61.99;100431.22;7355586;19;20023;-57
2022/04/05 06:52:57;;;;;;;0.00;0.00;;;;;;;11.60;62.25;100432.81;7353818;19;20014;-57
2022/04/05 06:55:22;;;;;;;0.00;0.00;;;;;;;11.61;62.24;100428.47;7352853;19;20026;-57
2022/04/05 06:57:48;;;;;;;0.00;0.00;;;;;;;11.63;62.65;100443.19;7350048;19;20017;-58
2022/04/05 07:00:14;;;;;;;0.00;0.00;;;;;;;11.65;62.56;100436.13;7355696;19;20053;-57
2022/04/05 07:02:40;;;;;;;0.00;0.00;;;;;;;11.52;62.97;100411.28;7344531;19;21606;-59
2022/04/05 07:05:07;;;;;;;0.00;0.00;;;;;;;11.64;63.30;100434.44;7355561;19;20010;-57
2022/04/05 07:07:32;;;;;;;0.00;0.00;;;;;;;11.66;63.41;100432.63;7355137;19;20021;-58
2022/04/05 07:09:58;;;;;;;0.00;0.00;;;;;;;11.65;63.25;100430.91;7351772;19;20006;-61
2022/04/05 07:12:23;;;;;;;0.00;0.00;;;;;;;11.69;63.42;100432.53;7350636;19;20027;-60
2022/04/05 07:14:50;;;;;;;0.00;0.00;;;;;;;11.68;63.38;100425.59;7356593;19;20013;-60
2022/04/05 07:17:15;;;;;;;0.00;0.00;;;;;;;11.58;63.79;100402.38;7342699;19;20017;-60
2022/04/05 07:19:40;;;;;;;0.00;0.00;;;;;;;11.72;63.71;100420.28;7357281;19;20006;-61
2022/04/05 07:22:06;;;;;;;0.00;0.00;;;;;;;11.73;63.69;100412.38;7362285;19;20895;-59
2022/04/05 07:24:31;;;;;;;0.00;0.00;;;;;;;11.80;63.23;100423.47;7357614;19;20014;-60
2022/04/05 07:26:57;;;;;;;0.00;0.00;;;;;;;11.81;63.18;100422.56;7364093;19;20025;-61
2022/04/05 07:29:22;;;;;;;0.00;0.00;;;;;;;11.57;63.12;100375.38;7358443;19;20013;-61
2022/04/05 07:31:48;;;;;;;0.00;0.00;;;;;;;11.87;63.25;100425.03;7358447;19;20003;-60
2022/04/05 07:34:13;;;;;;;0.00;0.00;;;;;;;11.88;63.25;100430.22;7362132;19;20006;-58
2022/04/05 07:36:39;;;;;;;0.00;0.00;;;;;;;11.91;63.09;100424.00;7356350;19;20019;-57
2022/04/05 07:39:04;;;;;;;0.00;0.00;;;;;;;11.80;63.26;100415.63;7363299;19;20018;-57
2022/04/05 07:41:30;;;;;;;0.00;0.00;;;;;;;11.83;63.11;100412.97;7352955;19;20015;-57
2022/04/05 07:43:56;;;;;;;0.08;0.08;;;;;;;11.91;64.24;100418.78;7361834;19;20019;-57
2022/04/05 07:46:21;;;;;;;0.00;0.00;;;;;;;11.95;65.19;100428.25;7363509;19;20636;-58
2022/04/05 07:48:47;;;;;;;0.00;0.00;;;;;;;11.94;65.30;100432.63;7356559;19;20021;-57
2022/04/05 07:51:14;;;;;;;0.00;0.00;;;;;;;11.74;65.43;100389.69;7360200;19;20059;-60
2022/04/05 07:53:39;;;;;;;0.00;0.00;;;;;;;11.91;65.58;100434.47;7359244;19;20030;-58
2022/04/05 07:56:04;;;;;;;0.00;0.00;;;;;;;11.79;65.53;100427.84;7364737;19;20018;-57
2022/04/05 07:58:30;;;;;;;0.00;0.00;;;;;;;11.85;65.24;100432.06;7359569;19;20504;-58
2022/04/05 08:00:56;;;;;;;0.00;0.00;;;;;;;11.67;65.79;100397.72;7362349;19;20010;-57
2022/04/05 08:03:22;;;;;;;0.00;0.00;;;;;;;11.78;65.83;100410.47;7356768;19;20764;-58
2022/04/05 08:05:48;;;;;;;0.00;0.00;;;;;;;11.79;66.09;100409.53;7350018;19;20017;-58
2022/04/05 08:08:14;;;;;;;0.00;0.00;;;;;;;11.74;65.79;100384.44;7358086;19;20025;-57
2022/04/05 08:10:39;;;;;;;0.00;0.00;;;;;;;11.75;66.26;100394.00;7360402;19;20088;-59
2022/04/05 08:13:05;;;;;;;0.00;0.00;;;;;;;11.81;66.30;100404.25;7357986;19;20023;-58
2022/04/05 08:15:30;;;;;;;0.00;0.00;;;;;;;11.85;66.40;100400.69;7363959;19;20005;-57
2022/04/05 08:17:57;;;;;;;0.00;0.00;;;;;;;11.88;65.77;100392.75;7360653;19;20046;-58
2022/04/05 08:20:23;;;;;;;0.00;0.00;;;;;;;11.91;66.07;100382.16;7363968;19;20792;-57
2022/04/05 08:22:49;;;;;;;0.00;0.00;;;;;;;11.95;66.43;100383.75;7356077;19;20692;-58
2022/04/05 08:25:16;;;;;;;0.00;0.00;;;;;;;12.00;66.19;100379.22;7361768;19;20021;-57
2022/04/05 08:27:44;;;;;;;0.00;0.00;;;;;;;12.06;65.39;100379.00;7364390;19;20350;-56
2022/04/05 08:30:12;;;;;;;0.00;0.00;;;;;;;12.01;65.33;100354.75;7356484;19;20073;-57
2022/04/05 08:32:42;;;;;;;0.00;0.00;;;;;;;12.20;65.38;100383.78;7352857;19;20011;-58
2022/04/05 08:35:08;;;;;;;0.00;0.00;;;;;;;12.24;65.30;100374.06;7361721;19;20017;-58
2022/04/05 08:37:34;;;;;;;0.00;0.00;;;;;;;12.29;64.94;100373.00;7355544;19;20039;-58
2022/04/05 08:40:00;;;;;;;0.00;0.00;;;;;;;12.35;65.29;100364.06;7358943;19;20074;-58
2022/04/05 08:42:25;;;;;;;0.00;0.00;;;;;;;12.44;65.12;100361.13;7354114;19;20022;-57
2022/04/05 08:44:51;;;;;;;0.00;0.00;;;;;;;12.32;64.43;100344.09;7360354;19;20040;-58
2022/04/05 08:47:23;;;;;;;0.00;0.00;;;;;;;12.57;64.81;100375.50;7359178;19;20026;-57
2022/04/05 08:49:49;;;;;;;0.00;0.00;;;;;;;12.62;64.35;100370.97;7362920;19;20014;-58
2022/04/05 08:52:14;;;;;;;0.00;0.00;;;;;;;12.69;64.19;100364.56;7358479;19;20696;-57
2022/04/05 08:54:40;;;;;;;0.00;0.00;;;;;;;12.76;63.97;100354.72;7361058;19;20070;-57
2022/04/05 08:57:05;;;;;;;0.00;0.00;;;;;;;12.84;63.83;100367.53;7360994;19;20387;-58
2022/04/05 08:59:31;;;;;;;0.00;0.00;;;;;;;12.87;63.63;100351.69;7361447;19;20044;-57
2022/04/05 09:01:56;;;;;;;0.00;0.00;;;;;;;12.93;63.45;100352.34;7359873;19;20052;-57
2022/04/05 09:04:22;;;;;;;0.00;0.00;;;;;;;12.99;63.29;100351.25;7360615;19;20017;-58
2022/04/05 09:06:47;;;;;;;0.00;0.00;;;;;;;13.02;63.54;100343.25;7361443;19;20107;-58
2022/04/05 09:09:16;;;;;;;0.03;0.03;;;;;;;13.11;63.31;100355.16;7357588;19;20017;-58
2022/04/05 09:11:54;;;;;;;0.00;0.00;;;;;;;13.22;62.76;100348.59;7361620;19;20752;-57
2022/04/05 09:14:29;;;;;;;0.00;0.00;;;;;;;13.28;61.96;100344.91;7361614;19;20010;-57
2022/04/05 09:17:05;;;;;;;0.00;0.00;;;;;;;13.19;61.98;100330.34;7362690;19;20347;-57
2022/04/05 09:19:46;;;;;;;0.00;0.00;;;;;;;13.34;61.82;100363.00;7356080;19;20090;-58
2022/04/05 09:22:12;;;;;;;0.00;0.00;;;;;;;13.37;61.25;100356.78;7361474;19;20018;-57
2022/04/05 09:24:40;;;;;;;0.00;0.00;;;;;;;13.45;60.98;100349.47;7361376;19;20032;-57
2022/04/05 09:27:06;;;;;;;0.05;0.05;;;;;;;13.47;61.25;100350.25;7361917;19;20014;-58
2022/04/05 09:29:39;;;;;;;0.00;0.00;;;;;;;13.54;61.16;100343.88;7357857;19;20432;-58
2022/04/05 09:32:04;;;;;;;0.00;0.00;;;;;;;13.56;60.67;100346.41;7358518;19;20006;-57
2022/04/05 09:34:30;;;;;;;0.00;0.00;;;;;;;13.60;60.86;100340.97;7355883;19;20017;-57
2022/04/05 09:36:55;;;;;;;0.00;0.00;;;;;;;13.63;61.15;100346.09;7362000;19;20018;-57
2022/04/05 09:39:26;;;;;;;0.00;0.00;;;;;;;13.70;60.74;100344.09;7359439;19;20034;-57
2022/04/05 09:42:07;;;;;;;0.00;0.00;;;;;;;13.71;60.65;100341.38;7358127;19;20010;-58
2022/04/05 09:44:42;;;;;;;0.00;0.00;;;;;;;13.72;60.24;100348.34;7361154;19;20381;-58
2022/04/05 09:47:17;;;;;;;0.00;0.00;;;;;;;13.74;59.79;100364.88;7356353;19;20015;-57
2022/04/05 09:49:45;;;;;;;0.00;0.00;;;;;;;13.71;59.64;100357.13;7361064;19;20102;-58
2022/04/05 09:52:33;;;;;;;0.00;0.00;;;;;;;13.71;59.80;100341.38;7353021;19;20015;-58
2022/04/05 09:55:13;;;;;;;0.00;0.00;;;;;;;13.69;59.37;100348.47;7360721;19;20018;-57
2022/04/05 09:57:39;;;;;;;0.00;0.00;;;;;;;13.64;59.91;100334.69;7359684;19;20740;-58
2022/04/05 10:00:09;;;;;;;0.00;0.00;;;;;;;13.54;59.69;100322.88;7353040;19;20086;-58
2022/04/05 10:02:35;;;;;;;0.00;0.00;;;;;;;13.65;60.50;100325.91;7361154;19;20014;-58
2022/04/05 10:05:08;;;;;;;0.00;0.00;;;;;;;13.75;60.30;100344.75;7361378;19;20074;-56
2022/04/05 10:07:34;;;;;;;0.00;0.00;;;;;;;13.82;60.17;100337.47;7356861;19;20014;-57
2022/04/05 10:10:03;;;;;;;0.00;0.00;;;;;;;13.85;60.72;100332.09;7359560;19;20094;-58
2022/04/05 10:12:28;;;;;;;0.00;0.00;;;;;;;13.92;60.54;100328.28;7360601;19;20494;-58
2022/04/05 10:14:56;;;;;;;0.00;0.00;;;;;;;13.93;60.50;100311.59;7361014;19;20011;-57
2022/04/05 10:17:25;;;;;;;0.00;0.00;;;;;;;14.13;59.98;100311.59;7362276;19;20006;-57
2022/04/05 10:19:53;;;;;;;0.00;0.00;;;;;;;14.20;60.15;100306.97;7357232;19;20006;-57
2022/04/05 10:22:20;;;;;;;0.00;0.00;;;;;;;14.26;59.86;100312.78;7359802;19;20031;-58
2022/04/05 10:24:49;;;;;;;0.00;0.00;;;;;;;14.34;60.11;100314.19;7359070;19;20026;-57
2022/04/05 10:27:17;;;;;;;0.00;0.00;;;;;;;14.39;59.99;100317.47;7361657;19;21518;-58
2022/04/05 10:29:44;;;;;;;0.00;0.00;;;;;;;14.46;59.81;100316.31;7356694;19;20022;-58
2022/04/05 10:32:33;;;;;;;0.00;0.00;;;;;;;14.49;59.85;100282.03;7360503;19;20007;-57
2022/04/05 10:35:04;;;;;;;0.00;0.00;;;;;;;14.59;59.54;100303.47;7254235;19;2004660;-58
2022/04/05 10:37:34;;;;;;;0.00;0.00;;;;;;;14.62;59.32;100327.84;7360099;19;20006;-57
2022/04/05 10:39:59;;;;;;;0.00;0.00;;;;;;;14.64;58.97;100296.25;7356108;19;20027;-58
2022/04/05 10:42:33;;;;;;;0.00;0.00;;;;;;;14.66;58.86;100290.00;7359113;19;20014;-58
2022/04/05 10:45:28;;;;;;;0.00;0.00;;;;;;;14.73;59.08;100283.53;7359209;19;21888;-58
2022/04/05 10:48:16;;;;;;;0.00;0.00;;;;;;;14.77;59.13;100287.72;7257825;19;2004412;-57
2022/04/05 10:50:44;;;;;;;0.00;0.00;;;;;;;14.75;58.58;100271.19;7251167;19;2004788;-58
2022/04/05 10:53:12;;;;;;;0.00;0.00;;;;;;;14.86;58.92;100267.19;7358030;19;20074;-58
2022/04/05 10:56:03;;;;;;;0.00;0.00;;;;;;;14.96;58.25;100265.84;7364500;19;20930;-58
2022/04/05 10:58:32;;;;;;;0.00;0.00;;;;;;;14.97;57.50;100273.66;7365102;19;20015;-58
2022/04/05 11:01:18;;;;;;;0.00;0.00;;;;;;;15.09;57.19;100261.69;7365625;19;20014;-58
2022/04/05 11:04:28;;;;;;;0.00;0.00;;;;;;;15.15;57.55;100253.47;7364880;19;20720;-57
2022/04/05 11:07:03;;;;;;;0.00;0.00;;;;;;;15.21;56.28;100247.94;7257125;19;2004322;-57
2022/04/05 11:09:32;;;;;;;0.00;0.00;;;;;;;15.26;56.43;100252.97;7367501;19;20014;-57
2022/04/05 11:12:01;;;;;;;0.00;0.00;;;;;;;15.40;55.74;100260.16;7365251;19;20011;-58
2022/04/05 11:14:41;;;;;;;0.00;0.00;;;;;;;15.54;55.31;100252.44;7366889;19;20014;-57
2022/04/05 11:17:09;;;;;;;0.00;0.00;;;;;;;15.60;54.90;100236.34;7357953;19;20022;-59
2022/04/05 11:19:41;;;;;;;0.00;0.00;;;;;;;15.77;55.51;100246.91;7363036;19;20022;-57
2022/04/05 11:22:30;;;;;;;0.00;0.00;;;;;;;15.93;55.47;100244.34;7367636;19;20347;-57
2022/04/05 11:25:06;;;;;;;0.00;0.00;;;;;;;16.01;53.72;100242.13;7364756;19;20022;-58